Time;durP1;ratioP1;P1;durP2;ratioP2;P2;SDS_P1;SDS_P2;PMS_P1;PMS_P2;Temp;Humidity;BMP_temperature;BMP_pressure;BME280_temperature;BME280_humidity;BME280_pressure;Samples;Min_cycle;Max_cycle;Signal;HPM_P1;HPM_P2
2023/01/01 00:01:26;;;;;;;6.75;1.85;;;;;15.40;100376.00;;;;10492679;28;20668;-78
2023/01/01 00:06:28;;;;;;;5.38;1.80;;;;;15.30;100393.00;;;;10484325;28;20202;-77
2023/01/01 00:11:30;;;;;;;3.70;1.60;;;;;15.10;100388.00;;;;10494431;28;20221;-78
2023/01/01 00:16:33;;;;;;;4.80;1.67;;;;;15.00;100376.00;;;;10487090;28;20186;-77
2023/01/01 00:21:35;;;;;;;4.35;2.03;;;;;14.90;100384.00;;;;10476864;28;20212;-78
2023/01/01 00:26:37;;;;;;;8.77;1.95;;;;;14.80;100387.00;;;;10492205;28;20235;-78
2023/01/01 00:31:39;;;;;;;3.33;1.60;;;;;14.80;100400.00;;;;10526727;28;20591;-77
2023/01/01 00:36:41;;;;;;;5.57;1.77;;;;;14.80;100401.00;;;;10511594;28;20587;-78
2023/01/01 00:41:43;;;;;;;6.93;1.80;;;;;14.70;100392.00;;;;10450766;28;20237;-77
2023/01/01 00:46:45;;;;;;;4.10;1.65;;;;;14.70;100401.00;;;;10451034;28;20207;-78
2023/01/01 00:51:47;;;;;;;4.32;1.67;;;;;14.80;100404.00;;;;10465782;28;20296;-78
2023/01/01 00:56:49;;;;;;;4.05;1.50;;;;;14.80;100400.00;;;;10512169;28;20724;-77
2023/01/01 01:01:51;;;;;;;3.33;1.48;;;;;14.80;100385.00;;;;10524047;28;20208;-78
2023/01/01 01:06:53;;;;;;;4.30;1.10;;;;;14.80;100395.00;;;;10522762;28;20207;-79
2023/01/01 01:11:55;;;;;;;7.32;1.85;;;;;14.80;100405.00;;;;10481405;28;20214;-78
2023/01/01 01:17:17;;;;;;;3.47;1.70;;;;;14.70;100398.00;;;;10482854;28;20193;-78
2023/01/01 01:22:18;;;;;;;3.10;1.33;;;;;14.70;100370.00;;;;10513066;28;20214;-78
2023/01/01 01:27:29;;;;;;;1.75;1.38;;;;;14.70;100391.00;;;;10524015;28;20235;-78
2023/01/01 01:32:32;;;;;;;4.65;1.85;;;;;14.70;100396.00;;;;10524630;28;20221;-78
2023/01/01 01:37:34;;;;;;;4.63;2.08;;;;;14.70;100398.00;;;;10468628;28;20180;-78
2023/01/01 01:42:36;;;;;;;4.75;1.83;;;;;14.70;100397.00;;;;10476448;28;20197;-77
2023/01/01 01:47:57;;;;;;;5.93;1.55;;;;;14.80;100430.00;;;;10468004;28;20202;-78
2023/01/01 01:53:15;;;;;;;6.22;1.90;;;;;14.70;100439.00;;;;10521253;28;20254;-77
2023/01/01 01:58:17;;;;;;;6.93;1.75;;;;;14.60;100445.00;;;;10469521;28;20192;-77
2023/01/01 02:03:21;;;;;;;5.43;1.70;;;;;14.40;100461.00;;;;10522687;28;20196;-79
2023/01/01 02:08:24;;;;;;;5.75;1.95;;;;;14.30;100466.00;;;;10465591;28;20197;-79
2023/01/01 02:13:26;;;;;;;4.03;1.73;;;;;14.20;100448.00;;;;10500800;28;20548;-79
2023/01/01 02:18:49;;;;;;;8.27;2.70;;;;;14.20;100457.00;;;;10482072;28;20186;-79
2023/01/01 02:23:57;;;;;;;2.08;1.60;;;;;14.30;100451.00;;;;10473342;28;20205;-79
2023/01/01 02:29:24;;;;;;;2.85;1.63;;;;;14.40;100456.00;;;;10506143;28;20247;-79
2023/01/01 02:34:32;;;;;;;2.85;1.85;;;;;14.40;100462.00;;;;10501936;28;20216;-79
2023/01/01 02:39:38;;;;;;;5.80;1.60;;;;;14.40;100481.00;;;;10518880;28;20193;-80
2023/01/01 02:44:43;;;;;;;6.72;3.33;;;;;14.40;100484.00;;;;10504700;28;20225;-79
2023/01/01 02:50:02;;;;;;;2.10;1.50;;;;;14.30;100487.00;;;;10484763;28;20201;-79
2023/01/01 02:55:32;;;;;;;4.70;1.63;;;;;14.30;100481.00;;;;10484033;28;20200;-80
2023/01/01 03:00:34;;;;;;;7.30;1.50;;;;;14.30;100498.00;;;;10470979;28;20194;-79
2023/01/01 03:11:21;;;;;;;6.50;1.40;;;;;14.20;100497.00;;;;10513009;28;20212;-79
2023/01/01 03:16:45;;;;;;;4.18;1.48;;;;;14.20;100511.00;;;;10486444;28;20976;-80
2023/01/01 03:21:56;;;;;;;5.28;1.52;;;;;14.20;100520.00;;;;10463400;28;20223;-79
2023/01/01 03:27:07;;;;;;;3.47;1.55;;;;;14.30;100507.00;;;;10468680;28;20236;-79
2023/01/01 03:32:14;;;;;;;4.60;1.35;;;;;14.20;100511.00;;;;10468775;28;20699;-79
2023/01/01 03:37:24;;;;;;;4.10;1.50;;;;;14.10;100532.00;;;;10493914;28;20284;-79
2023/01/01 03:42:42;;;;;;;4.47;1.60;;;;;13.50;100519.00;;;;10493221;28;20727;-79
2023/01/01 03:47:45;;;;;;;5.23;1.50;;;;;13.20;100520.00;;;;10508273;28;20188;-79
2023/01/01 03:53:06;;;;;;;3.20;1.43;;;;;13.20;100541.00;;;;10526227;28;20201;-79
2023/01/01 03:58:17;;;;;;;5.33;1.83;;;;;13.10;100530.00;;;;10484197;28;20224;-79
2023/01/01 04:03:26;;;;;;;4.07;1.70;;;;;13.20;100509.00;;;;10451255;28;20194;-79
2023/01/01 04:08:28;;;;;;;5.67;1.70;;;;;13.40;100517.00;;;;10486486;28;20193;-79
2023/01/01 04:13:44;;;;;;;3.53;1.30;;;;;13.40;100527.00;;;;10460445;28;20233;-79
2023/01/01 04:18:46;;;;;;;6.07;1.70;;;;;13.50;100531.00;;;;10451397;28;20204;-79
2023/01/01 04:23:48;;;;;;;6.27;2.07;;;;;13.50;100536.00;;;;10452340;28;20206;-79
2023/01/01 04:28:50;;;;;;;5.73;1.60;;;;;13.60;100567.00;;;;10467396;28;20648;-79
2023/01/01 04:33:53;;;;;;;3.00;1.40;;;;;13.50;100564.00;;;;10465852;28;20206;-79
2023/01/01 04:38:56;;;;;;;1.87;1.30;;;;;13.50;100577.00;;;;10472020;28;20218;-78
2023/01/01 04:43:58;;;;;;;3.27;1.53;;;;;13.60;100593.00;;;;10436557;28;20185;-78
2023/01/01 04:49:00;;;;;;;2.23;1.40;;;;;13.60;100603.00;;;;10466216;28;20732;-79
2023/01/01 04:54:01;;;;;;;4.00;1.70;;;;;13.60;100594.00;;;;10452383;28;20566;-79
2023/01/01 04:59:03;;;;;;;3.37;1.33;;;;;13.60;100589.00;;;;10485321;28;20204;-79
2023/01/01 05:04:05;;;;;;;3.87;1.73;;;;;13.60;100603.00;;;;10464745;28;20181;-80
2023/01/01 05:09:09;;;;;;;4.77;1.80;;;;;13.50;100608.00;;;;10465106;28;20200;-79
2023/01/01 05:14:11;;;;;;;5.93;1.70;;;;;13.50;100626.00;;;;10515331;28;20210;-79
2023/01/01 05:19:13;;;;;;;3.67;1.70;;;;;13.60;100628.00;;;;10464813;28;20876;-79
2023/01/01 05:24:15;;;;;;;6.93;1.80;;;;;13.70;100616.00;;;;10495468;28;20224;-79
2023/01/01 05:29:18;;;;;;;4.73;1.67;;;;;13.80;100646.00;;;;10504451;28;20230;-79
2023/01/01 05:34:20;;;;;;;3.13;1.50;;;;;13.80;100642.00;;;;10487679;28;20204;-79
2023/01/01 05:39:22;;;;;;;5.80;1.93;;;;;13.80;100657.00;;;;10467938;28;20201;-79
2023/01/01 05:44:23;;;;;;;5.60;1.70;;;;;13.80;100646.00;;;;10473322;28;20284;-79
2023/01/01 05:49:25;;;;;;;4.37;1.50;;;;;13.80;100649.00;;;;10463556;28;20220;-79
2023/01/01 05:54:27;;;;;;;4.50;1.93;;;;;13.80;100665.00;;;;10473207;28;20262;-79
2023/01/01 05:59:29;;;;;;;3.77;1.40;;;;;13.80;100652.00;;;;10497318;28;20184;-79
2023/01/01 06:04:31;;;;;;;6.57;1.63;;;;;13.80;100674.00;;;;10512195;28;20185;-80
2023/01/01 06:09:33;;;;;;;8.53;2.37;;;;;13.80;100687.00;;;;10529774;28;20181;-80
2023/01/01 06:14:35;;;;;;;7.20;2.30;;;;;13.80;100684.00;;;;10496509;28;20208;-80
2023/01/01 06:19:37;;;;;;;10.43;2.40;;;;;13.70;100708.00;;;;10487337;28;20201;-79
2023/01/01 06:24:39;;;;;;;4.07;1.20;;;;;13.70;100732.00;;;;10463284;28;20630;-79
2023/01/01 06:29:41;;;;;;;2.80;1.73;;;;;13.70;100719.00;;;;10512127;28;20221;-79
2023/01/01 06:34:42;;;;;;;7.77;2.10;;;;;13.60;100721.00;;;;10484337;28;20262;-79
2023/01/01 06:39:44;;;;;;;6.27;1.77;;;;;13.60;100727.00;;;;10460148;28;20201;-79
2023/01/01 06:44:46;;;;;;;7.20;2.00;;;;;13.50;100745.00;;;;10453724;28;20200;-79
2023/01/01 06:49:48;;;;;;;9.13;2.17;;;;;13.50;100747.00;;;;10447778;28;20683;-80
2023/01/01 06:54:50;;;;;;;5.38;1.92;;;;;13.50;100759.00;;;;10506735;28;20213;-79
2023/01/01 06:59:52;;;;;;;5.50;1.83;;;;;13.40;100764.00;;;;10495836;28;20193;-80
2023/01/01 07:04:54;;;;;;;6.47;2.13;;;;;13.40;100781.00;;;;10468242;28;20301;-79
2023/01/01 07:09:56;;;;;;;5.80;1.60;;;;;13.40;100785.00;;;;10468166;28;20201;-79
2023/01/01 07:14:58;;;;;;;4.27;1.90;;;;;13.40;100788.00;;;;10511988;28;20232;-79
2023/01/01 07:20:00;;;;;;;3.70;2.33;;;;;13.30;100801.00;;;;10501310;28;20187;-79
2023/01/01 07:25:02;;;;;;;9.00;2.70;;;;;13.30;100804.00;;;;10502170;28;20253;-79
2023/01/01 07:30:05;;;;;;;5.80;2.30;;;;;13.30;100808.00;;;;10468308;28;20223;-79
2023/01/01 07:35:07;;;;;;;5.40;2.30;;;;;13.30;100806.00;;;;10493258;28;20213;-79
2023/01/01 07:40:10;;;;;;;6.63;2.53;;;;;13.20;100817.00;;;;10493782;28;20197;-79
2023/01/01 07:45:13;;;;;;;8.57;2.33;;;;;13.20;100832.00;;;;10508948;28;20211;-79
2023/01/01 07:50:16;;;;;;;9.73;2.13;;;;;13.10;100835.00;;;;10454931;28;20193;-79
2023/01/01 07:55:19;;;;;;;7.80;2.33;;;;;13.00;100862.00;;;;10489187;28;20229;-79
2023/01/01 08:00:21;;;;;;;6.70;2.10;;;;;13.00;100859.00;;;;10467381;28;20201;-79
2023/01/01 08:05:23;;;;;;;4.60;2.50;;;;;13.00;100868.00;;;;10466097;28;20248;-79
2023/01/01 08:10:28;;;;;;;7.87;2.13;;;;;13.00;100876.00;;;;10467512;28;20223;-79
2023/01/01 08:15:30;;;;;;;8.23;2.10;;;;;12.90;100884.00;;;;10506721;28;20193;-79
2023/01/01 08:20:33;;;;;;;11.33;3.17;;;;;12.90;100897.00;;;;10450907;28;20181;-80
2023/01/01 08:25:37;;;;;;;7.60;2.20;;;;;12.80;100907.00;;;;10467923;28;20225;-79
2023/01/01 08:30:39;;;;;;;7.97;2.10;;;;;12.80;100909.00;;;;10451028;28;20540;-79
2023/01/01 08:35:41;;;;;;;8.23;2.40;;;;;12.80;100920.00;;;;10435356;28;20209;-79
2023/01/01 08:40:43;;;;;;;5.30;1.90;;;;;12.90;100934.00;;;;10500782;28;20839;-79
2023/01/01 08:45:45;;;;;;;9.50;2.53;;;;;12.90;100928.00;;;;10491254;28;20194;-79
2023/01/01 08:50:54;;;;;;;6.57;1.80;;;;;13.00;100930.00;;;;10491654;28;20299;-79
2023/01/01 08:56:02;;;;;;;8.97;2.23;;;;;13.00;100930.00;;;;10468830;28;20209;-79
2023/01/01 09:01:05;;;;;;;9.77;2.60;;;;;13.00;100939.00;;;;10488728;28;20348;-79
2023/01/01 09:06:07;;;;;;;6.17;2.13;;;;;13.00;100935.00;;;;10506707;28;20752;-79
2023/01/01 09:11:25;;;;;;;6.30;2.13;;;;;13.10;100947.00;;;;10516131;28;20201;-79
2023/01/01 09:16:26;;;;;;;8.17;2.40;;;;;13.30;100966.00;;;;10456266;28;20204;-79
2023/01/01 09:21:28;;;;;;;10.67;2.40;;;;;13.50;100964.00;;;;10487487;28;20247;-79
2023/01/01 09:26:30;;;;;;;6.33;1.70;;;;;13.60;100968.00;;;;10484085;28;20232;-79
2023/01/01 09:31:33;;;;;;;9.80;2.53;;;;;13.70;100972.00;;;;10474238;28;20208;-79
2023/01/01 09:36:34;;;;;;;8.03;2.67;;;;;13.80;100974.00;;;;10488975;28;20197;-79
2023/01/01 09:42:01;;;;;;;5.27;2.00;;;;;13.90;100972.00;;;;10473297;28;20208;-79
2023/01/01 09:47:12;;;;;;;6.63;2.03;;;;;14.00;100979.00;;;;10476779;28;20668;-79
2023/01/01 09:52:15;;;;;;;9.63;2.30;;;;;14.10;100971.00;;;;10466219;28;20712;-79
2023/01/01 09:57:17;;;;;;;9.57;2.23;;;;;14.30;100975.00;;;;10527719;28;20195;-79
2023/01/01 10:02:41;;;;;;;6.50;2.00;;;;;14.40;100982.00;;;;10480723;28;20189;-79
2023/01/01 10:08:17;;;;;;;4.70;1.83;;;;;14.30;100979.00;;;;10498637;28;20194;-79
2023/01/01 10:13:33;;;;;;;8.95;1.60;;;;;14.20;100984.00;;;;10449138;28;20292;-79
2023/01/01 10:18:37;;;;;;;7.18;1.90;;;;;14.30;100982.00;;;;10453435;28;20200;-79
2023/01/01 10:23:45;;;;;;;8.57;1.77;;;;;14.40;100995.00;;;;10465809;28;20201;-78
2023/01/01 10:29:13;;;;;;;5.93;1.97;;;;;14.50;100988.00;;;;10490792;28;20220;-79
2023/01/01 10:34:20;;;;;;;8.63;2.10;;;;;14.70;100984.00;;;;10465846;28;20206;-79
2023/01/01 10:39:23;;;;;;;7.10;1.92;;;;;14.80;100979.00;;;;10465760;28;20185;-80
2023/01/01 10:44:33;;;;;;;7.60;1.92;;;;;15.10;100981.00;;;;10456724;28;20202;-79
2023/01/01 10:49:53;;;;;;;7.40;2.25;;;;;15.30;101001.00;;;;10472287;28;20197;-79
2023/01/01 10:54:55;;;;;;;6.00;1.95;;;;;15.20;101009.00;;;;10509520;28;20255;-79
2023/01/01 11:00:22;;;;;;;9.18;1.90;;;;;15.20;101013.00;;;;10517518;28;20667;-79
2023/01/01 11:05:24;;;;;;;6.63;1.95;;;;;15.40;101005.00;;;;10491624;28;20201;-79
2023/01/01 11:10:28;;;;;;;8.63;2.15;;;;;15.80;100996.00;;;;10452839;28;20198;-79
2023/01/01 11:15:36;;;;;;;8.07;2.25;;;;;16.10;100992.00;;;;10452757;28;20209;-79
2023/01/01 11:20:39;;;;;;;9.18;2.60;;;;;16.10;100999.00;;;;10479077;28;20283;-79
2023/01/01 11:25:56;;;;;;;5.80;1.80;;;;;16.20;100978.00;;;;10478665;28;20540;-79
2023/01/01 11:31:14;;;;;;;6.03;1.75;;;;;16.50;100968.00;;;;10473951;28;20181;-79
2023/01/01 11:36:28;;;;;;;5.15;1.80;;;;;16.20;100970.00;;;;10509379;28;20203;-79
2023/01/01 11:41:40;;;;;;;7.80;1.80;;;;;16.00;100975.00;;;;10504152;28;20256;-79
2023/01/01 11:46:45;;;;;;;6.50;1.92;;;;;15.80;100996.00;;;;10467668;28;20559;-79
2023/01/01 11:51:47;;;;;;;5.82;1.48;;;;;15.70;101001.00;;;;10454337;28;20625;-79
2023/01/01 11:56:53;;;;;;;4.53;2.08;;;;;15.70;100996.00;;;;10487524;28;20200;-79
2023/01/01 12:02:03;;;;;;;6.72;1.50;;;;;15.70;100975.00;;;;10512969;28;20185;-79
2023/01/01 12:07:13;;;;;;;12.00;2.78;;;;;15.80;100983.00;;;;10497339;28;20231;-79
2023/01/01 12:12:25;;;;;;;8.30;1.83;;;;;15.70;100994.00;;;;10464316;28;20205;-78
2023/01/01 12:17:35;;;;;;;5.43;1.58;;;;;15.60;100979.00;;;;10466940;28;20186;-79
2023/01/01 12:22:39;;;;;;;9.63;1.83;;;;;15.30;100964.00;;;;10450142;28;20197;-79
2023/01/01 12:28:00;;;;;;;7.45;2.20;;;;;14.90;100954.00;;;;10434473;28;20739;-79
2023/01/01 12:33:17;;;;;;;7.05;2.10;;;;;14.70;100957.00;;;;10477420;28;20205;-79
2023/01/01 12:38:45;;;;;;;7.43;1.75;;;;;14.80;100951.00;;;;10492804;28;20228;-79
2023/01/01 12:44:09;;;;;;;8.65;2.28;;;;;14.80;100965.00;;;;10466300;28;20194;-79
2023/01/01 12:49:32;;;;;;;9.30;2.47;;;;;14.90;100976.00;;;;10478887;28;20284;-79
2023/01/01 12:54:42;;;;;;;6.88;2.42;;;;;15.00;100961.00;;;;10481823;28;20296;-79
2023/01/01 12:59:48;;;;;;;3.85;1.73;;;;;14.90;100956.00;;;;10467495;28;20212;-79
2023/01/01 13:04:55;;;;;;;5.63;1.90;;;;;14.90;100946.00;;;;10473875;28;20200;-79
2023/01/01 13:10:09;;;;;;;9.10;2.05;;;;;14.70;100945.00;;;;10508798;28;20671;-79
2023/01/01 13:15:34;;;;;;;9.18;2.33;;;;;14.50;100934.00;;;;10474428;28;20204;-79
2023/01/01 13:20:59;;;;;;;7.65;1.80;;;;;14.30;100931.00;;;;10507158;28;20211;-79
2023/01/01 13:26:16;;;;;;;9.25;2.25;;;;;14.10;100922.00;;;;10503153;28;20239;-79
2023/01/01 13:31:38;;;;;;;5.67;1.90;;;;;14.00;100927.00;;;;10482373;28;20674;-79
2023/01/01 13:36:40;;;;;;;9.63;2.30;;;;;13.80;100941.00;;;;10491767;28;20199;-79
2023/01/01 13:41:44;;;;;;;9.93;2.70;;;;;13.70;100948.00;;;;10508641;28;20212;-79
2023/01/01 13:47:04;;;;;;;5.40;1.85;;;;;13.70;100951.00;;;;10491060;28;20204;-79
2023/01/01 13:52:17;;;;;;;7.30;2.00;;;;;13.70;100944.00;;;;10473265;28;20205;-79
2023/01/01 13:57:53;;;;;;;5.43;1.97;;;;;13.70;100947.00;;;;10466094;28;20240;-79
2023/01/01 14:02:59;;;;;;;11.02;4.18;;;;;13.60;100958.00;;;;10479599;28;20191;-79
2023/01/01 14:08:02;;;;;;;6.85;2.40;;;;;13.60;100950.00;;;;10482053;28;20193;-79
2023/01/01 14:13:19;;;;;;;9.07;2.35;;;;;13.50;100940.00;;;;10475052;28;20241;-79
2023/01/01 14:18:32;;;;;;;7.70;2.10;;;;;13.50;100931.00;;;;10474888;28;20224;-79
2023/01/01 14:23:39;;;;;;;8.85;2.20;;;;;13.30;100926.00;;;;10487822;28;20201;-78
2023/01/01 14:28:41;;;;;;;8.00;2.17;;;;;13.20;100925.00;;;;10481993;28;20228;-79
2023/01/01 14:33:44;;;;;;;9.47;2.40;;;;;13.10;100932.00;;;;10488561;28;20241;-79
2023/01/01 14:38:48;;;;;;;8.67;1.90;;;;;12.90;100946.00;;;;10512175;28;20198;-78
2023/01/01 14:43:52;;;;;;;5.33;1.80;;;;;12.70;100941.00;;;;10489543;28;20181;-78
2023/01/01 14:48:57;;;;;;;6.93;2.13;;;;;12.60;100943.00;;;;10513131;28;20279;-78
2023/01/01 14:54:02;;;;;;;12.00;1.97;;;;;12.60;100934.00;;;;10484332;28;20251;-79
2023/01/01 14:59:22;;;;;;;5.40;2.40;;;;;12.70;100938.00;;;;10479071;28;20211;-79
2023/01/01 15:04:27;;;;;;;5.50;1.77;;;;;12.80;100925.00;;;;10495375;28;20212;-79
2023/01/01 15:09:30;;;;;;;4.13;1.80;;;;;12.80;100928.00;;;;10493020;28;20185;-78
2023/01/01 15:14:41;;;;;;;7.57;1.90;;;;;12.70;100942.00;;;;10469116;28;20210;-78
2023/01/01 15:19:45;;;;;;;5.97;2.13;;;;;12.70;100937.00;;;;10452337;28;20185;-78
2023/01/01 15:24:48;;;;;;;6.13;1.70;;;;;12.70;100933.00;;;;10478898;28;20561;-79
2023/01/01 15:29:50;;;;;;;6.07;1.60;;;;;12.70;100932.00;;;;10508498;28;20187;-78
2023/01/01 15:34:55;;;;;;;5.77;2.10;;;;;12.50;100922.00;;;;10493481;28;20197;-79
2023/01/01 15:40:03;;;;;;;5.77;2.00;;;;;12.30;100937.00;;;;10471822;28;20244;-78
2023/01/01 15:45:33;;;;;;;4.27;1.27;;;;;12.10;100925.00;;;;10489076;28;20197;-78
2023/01/01 15:50:47;;;;;;;4.97;1.47;;;;;11.90;100919.00;;;;10451401;28;20730;-78
2023/01/01 15:55:55;;;;;;;3.87;1.40;;;;;11.70;100920.00;;;;10485941;28;20201;-78
2023/01/01 16:01:00;;;;;;;3.57;1.40;;;;;11.70;100910.00;;;;10466869;28;20200;-78
2023/01/01 16:06:04;;;;;;;3.70;1.50;;;;;11.70;100917.00;;;;10474494;28;20196;-78
2023/01/01 16:11:05;;;;;;;5.70;2.93;;;;;11.60;100910.00;;;;10519237;28;20201;-78
2023/01/01 16:16:27;;;;;;;4.73;1.37;;;;;11.50;100898.00;;;;10455769;28;20216;-79
2023/01/01 16:21:33;;;;;;;6.87;2.23;;;;;11.40;100896.00;;;;10465985;28;20193;-78
2023/01/01 16:26:35;;;;;;;5.00;1.80;;;;;11.30;100895.00;;;;10455948;28;20232;-78
2023/01/01 16:31:38;;;;;;;5.63;2.30;;;;;11.30;100874.00;;;;10524271;28;20178;-78
2023/01/01 16:36:42;;;;;;;4.67;2.10;;;;;11.30;100879.00;;;;10506511;28;20213;-78
2023/01/01 16:41:44;;;;;;;6.10;1.93;;;;;11.20;100880.00;;;;10487792;28;20194;-78
2023/01/01 16:46:46;;;;;;;5.40;2.10;;;;;11.20;100876.00;;;;10449820;28;20225;-78
2023/01/01 16:51:49;;;;;;;4.20;2.07;;;;;11.10;100877.00;;;;10448606;28;20821;-78
2023/01/01 16:56:51;;;;;;;8.13;2.27;;;;;11.10;100874.00;;;;10450026;28;20214;-78
2023/01/01 17:01:53;;;;;;;3.10;1.90;;;;;11.10;100870.00;;;;10457180;28;20194;-78
2023/01/01 17:06:55;;;;;;;7.20;3.17;;;;;11.00;100862.00;;;;10480598;28;20185;-78
2023/01/01 17:11:57;;;;;;;4.83;2.30;;;;;11.00;100857.00;;;;10480261;28;20193;-79
2023/01/01 17:16:59;;;;;;;5.40;2.40;;;;;11.00;100854.00;;;;10460157;28;20293;-78
2023/01/01 17:22:03;;;;;;;4.87;2.20;;;;;10.90;100846.00;;;;10446967;28;20591;-79
2023/01/01 17:27:05;;;;;;;4.23;2.17;;;;;10.90;100830.00;;;;10491020;28;20213;-79
2023/01/01 17:32:07;;;;;;;6.23;3.23;;;;;10.90;100828.00;;;;10505759;28;20716;-80
2023/01/01 17:37:09;;;;;;;3.93;2.30;;;;;10.80;100817.00;;;;10484373;28;20244;-80
2023/01/01 17:42:10;;;;;;;4.13;2.50;;;;;10.80;100813.00;;;;10470342;28;20204;-80
2023/01/01 17:47:13;;;;;;;8.37;3.37;;;;;10.80;100796.00;;;;10461795;28;20288;-80
2023/01/01 17:52:15;;;;;;;7.97;2.90;;;;;10.80;100784.00;;;;10446750;28;20188;-80
2023/01/01 17:57:17;;;;;;;6.17;2.80;;;;;10.70;100776.00;;;;10464522;28;20212;-80
2023/01/01 18:02:19;;;;;;;2.97;2.10;;;;;10.70;100759.00;;;;10447279;28;20197;-80
2023/01/01 18:07:21;;;;;;;2.63;2.43;;;;;10.70;100742.00;;;;10483353;28;20236;-79
2023/01/01 18:12:23;;;;;;;4.25;2.20;;;;;10.70;100752.00;;;;10492188;28;20196;-80
2023/01/01 18:17:25;;;;;;;5.53;2.50;;;;;10.70;100741.00;;;;10464648;28;20731;-80
2023/01/01 18:22:27;;;;;;;3.80;2.00;;;;;10.70;100734.00;;;;10482454;28;20746;-80
2023/01/01 18:27:29;;;;;;;7.10;2.27;;;;;10.70;100729.00;;;;10476650;28;20224;-80
2023/01/01 18:32:31;;;;;;;4.63;2.33;;;;;10.70;100727.00;;;;10486102;28;20288;-80
2023/01/01 18:37:35;;;;;;;7.47;2.70;;;;;10.70;100722.00;;;;10520329;28;20606;-80
2023/01/01 18:43:05;;;;;;;3.80;2.53;;;;;10.70;100718.00;;;;10502049;28;20200;-80
2023/01/01 18:48:17;;;;;;;4.90;3.10;;;;;10.70;100716.00;;;;10485570;28;20224;-80
2023/01/01 18:53:22;;;;;;;6.67;2.60;;;;;10.70;100700.00;;;;10493292;28;20213;-80
2023/01/01 18:58:24;;;;;;;8.60;2.77;;;;;10.70;100696.00;;;;10476106;28;20281;-80
2023/01/01 19:03:31;;;;;;;8.77;2.67;;;;;10.70;100685.00;;;;10474498;28;20208;-80
2023/01/01 19:08:40;;;;;;;4.93;2.60;;;;;10.70;100663.00;;;;10468693;28;20186;-80
2023/01/01 19:13:42;;;;;;;6.77;3.00;;;;;10.70;100652.00;;;;10459332;28;20216;-80
2023/01/01 19:18:44;;;;;;;11.33;3.47;;;;;10.70;100640.00;;;;10458050;28;20194;-80
2023/01/01 19:23:52;;;;;;;9.77;3.13;;;;;10.70;100630.00;;;;10461687;28;20267;-80
2023/01/01 19:28:56;;;;;;;12.67;3.17;;;;;10.70;100623.00;;;;10519355;28;20188;-80
2023/01/01 19:33:57;;;;;;;7.33;2.93;;;;;10.70;100618.00;;;;10486538;28;20201;-80
2023/01/01 19:38:59;;;;;;;10.57;3.93;;;;;10.70;100603.00;;;;10468183;28;20591;-80
2023/01/01 19:44:01;;;;;;;7.67;3.70;;;;;10.70;100595.00;;;;10451447;28;20194;-80
2023/01/01 19:49:09;;;;;;;6.40;4.03;;;;;10.70;100613.00;;;;10480514;28;20194;-80
2023/01/01 19:54:11;;;;;;;11.07;3.97;;;;;10.60;100592.00;;;;10456642;28;20331;-80
2023/01/01 19:59:12;;;;;;;11.17;4.37;;;;;10.60;100580.00;;;;10466135;28;20201;-81
2023/01/01 20:04:14;;;;;;;10.53;3.37;;;;;10.60;100586.00;;;;10479596;28;20186;-80
2023/01/01 20:09:16;;;;;;;9.50;3.97;;;;;10.60;100588.00;;;;10476533;28;20284;-80
2023/01/01 20:14:18;;;;;;;9.60;3.50;;;;;10.60;100588.00;;;;10475933;28;20225;-81
2023/01/01 20:19:20;;;;;;;5.97;3.73;;;;;10.60;100598.00;;;;10464333;28;20201;-80
2023/01/01 20:24:22;;;;;;;7.47;3.83;;;;;10.60;100600.00;;;;10449202;28;20209;-81
2023/01/01 20:29:24;;;;;;;8.50;4.27;;;;;10.70;100592.00;;;;10449274;28;20196;-80
2023/01/01 20:34:26;;;;;;;9.00;2.93;;;;;10.80;100577.00;;;;10478264;28;20245;-80
2023/01/01 20:39:29;;;;;;;7.83;3.83;;;;;10.90;100581.00;;;;10467254;28;20636;-80
2023/01/01 20:44:31;;;;;;;10.97;3.93;;;;;10.90;100577.00;;;;10465910;28;20177;-80
2023/01/01 20:49:32;;;;;;;8.17;3.43;;;;;11.00;100574.00;;;;10480899;28;20193;-80
2023/01/01 20:54:34;;;;;;;9.80;3.60;;;;;11.00;100569.00;;;;10489881;28;20672;-80
2023/01/01 20:59:36;;;;;;;10.07;3.77;;;;;11.00;100568.00;;;;10525311;28;20223;-80
2023/01/01 21:04:39;;;;;;;6.57;3.43;;;;;11.00;100567.00;;;;10489842;28;20209;-81
2023/01/01 21:09:41;;;;;;;8.03;4.43;;;;;11.00;100556.00;;;;10487622;28;20203;-80
2023/01/01 21:14:44;;;;;;;8.57;3.70;;;;;11.00;100542.00;;;;10448599;28;20237;-80
2023/01/01 21:19:46;;;;;;;7.30;3.97;;;;;11.00;100549.00;;;;10431958;28;20208;-80
2023/01/01 21:24:48;;;;;;;9.63;3.97;;;;;11.00;100538.00;;;;10466942;28;20220;-81
2023/01/01 21:29:57;;;;;;;9.57;4.07;;;;;11.00;100533.00;;;;10465052;28;20710;-81
2023/01/01 21:34:59;;;;;;;11.73;4.33;;;;;11.00;100532.00;;;;10480688;28;20875;-81
2023/01/01 21:40:37;;;;;;;10.30;4.80;;;;;11.00;100525.00;;;;10478559;28;20204;-80
2023/01/01 21:45:42;;;;;;;11.40;4.60;;;;;10.90;100516.00;;;;10444953;28;20203;-81
2023/01/01 21:50:46;;;;;;;12.93;4.33;;;;;10.90;100524.00;;;;10479751;28;20200;-81
2023/01/01 21:55:51;;;;;;;9.47;4.73;;;;;10.90;100529.00;;;;10465583;28;20193;-82
2023/01/01 22:00:53;;;;;;;6.83;4.53;;;;;10.90;100516.00;;;;10450443;28;20190;-81
2023/01/01 22:05:55;;;;;;;8.27;4.63;;;;;11.00;100523.00;;;;10516221;28;20677;-81
2023/01/01 22:11:00;;;;;;;7.67;4.73;;;;;11.00;100514.00;;;;10468147;28;20652;-81
2023/01/01 22:16:02;;;;;;;5.63;4.07;;;;;11.10;100518.00;;;;10447982;28;20205;-81
2023/01/01 22:21:04;;;;;;;8.57;4.03;;;;;11.20;100511.00;;;;10463141;28;20190;-81
2023/01/01 22:26:26;;;;;;;8.73;4.13;;;;;11.30;100507.00;;;;10474058;28;20252;-81
2023/01/01 22:31:32;;;;;;;6.90;3.77;;;;;11.40;100499.00;;;;10447539;28;20186;-81
2023/01/01 22:36:35;;;;;;;6.80;3.30;;;;;11.60;100501.00;;;;10449037;28;20372;-80
2023/01/01 22:41:37;;;;;;;10.33;4.07;;;;;11.70;100493.00;;;;10487310;28;20193;-80
2023/01/01 22:46:40;;;;;;;6.97;3.07;;;;;11.90;100489.00;;;;10512285;28;20189;-81
2023/01/01 22:51:44;;;;;;;6.10;3.27;;;;;12.00;100485.00;;;;10480238;28;20251;-81
2023/01/01 22:56:46;;;;;;;10.07;3.73;;;;;12.00;100475.00;;;;10463524;28;20297;-80
2023/01/01 23:01:48;;;;;;;5.40;3.27;;;;;12.00;100474.00;;;;10513785;28;20205;-80
2023/01/01 23:06:50;;;;;;;7.03;3.23;;;;;12.10;100486.00;;;;10528261;28;20224;-80
2023/01/01 23:11:54;;;;;;;7.63;3.03;;;;;12.20;100484.00;;;;10488837;28;20197;-80
2023/01/01 23:16:55;;;;;;;6.07;2.83;;;;;12.20;100472.00;;;;10468707;28;20567;-80
2023/01/01 23:21:59;;;;;;;4.00;2.90;;;;;12.30;100469.00;;;;10510889;28;20196;-80
2023/01/01 23:27:01;;;;;;;7.17;3.00;;;;;12.40;100483.00;;;;10488777;28;20213;-80
2023/01/01 23:32:03;;;;;;;5.60;3.27;;;;;12.40;100473.00;;;;10485201;28;20217;-79
2023/01/01 23:37:06;;;;;;;9.53;3.40;;;;;12.50;100458.00;;;;10484860;28;20706;-80
2023/01/01 23:42:08;;;;;;;5.27;3.03;;;;;12.60;100461.00;;;;10496157;28;20185;-80
2023/01/01 23:47:11;;;;;;;9.03;3.57;;;;;12.70;100466.00;;;;10487081;28;20635;-79
2023/01/01 23:52:13;;;;;;;11.53;3.17;;;;;12.70;100456.00;;;;10483039;28;20243;-80
2023/01/01 23:57:15;;;;;;;6.27;3.13;;;;;12.80;100452.00;;;;10434486;28;20210;-80
